sensor_id;sensor_type;location;lat;lon;timestamp;temperature;humidity
7498;DHT22;3790;48.806;9.140;2023-03-14T00:03:03;9.30;99.90
7498;DHT22;3790;48.806;9.140;2023-03-14T00:08:04;9.30;99.90
7498;DHT22;3790;48.806;9.140;2023-03-14T00:13:05;9.30;99.90
7498;DHT22;3790;48.806;9.140;2023-03-14T00:18:05;9.30;99.90
7498;DHT22;3790;48.806;9.140;2023-03-14T00:23:06;9.30;99.90
7498;DHT22;3790;48.806;9.140;2023-03-14T00:28:06;9.30;99.90
7498;DHT22;3790;48.806;9.140;2023-03-14T00:33:07;9.20;99.90
7498;DHT22;3790;48.806;9.140;2023-03-14T00:38:07;9.20;99.90
7498;DHT22;3790;48.806;9.140;2023-03-14T00:43:08;9.20;99.90
7498;DHT22;3790;48.806;9.140;2023-03-14T00:48:08;9.20;99.90
7498;DHT22;3790;48.806;9.140;2023-03-14T00:53:09;9.20;99.90
7498;DHT22;3790;48.806;9.140;2023-03-14T00:58:14;9.10;99.90
7498;DHT22;3790;48.806;9.140;2023-03-14T01:03:15;9.10;99.90
7498;DHT22;3790;48.806;9.140;2023-03-14T01:08:16;9.00;99.90
7498;DHT22;3790;48.806;9.140;2023-03-14T01:13:16;9.10;99.90
7498;DHT22;3790;48.806;9.140;2023-03-14T01:18:17;9.20;99.90
7498;DHT22;3790;48.806;9.140;2023-03-14T01:23:17;9.30;99.90
7498;DHT22;3790;48.806;9.140;2023-03-14T01:28:18;9.30;99.90
7498;DHT22;3790;48.806;9.140;2023-03-14T01:33:18;9.30;99.90
7498;DHT22;3790;48.806;9.140;2023-03-14T01:38:19;9.30;99.90
7498;DHT22;3790;48.806;9.140;2023-03-14T01:43:20;9.20;99.90
7498;DHT22;3790;48.806;9.140;2023-03-14T01:48:21;9.10;99.90
7498;DHT22;3790;48.806;9.140;2023-03-14T01:53:22;9.00;99.90
7498;DHT22;3790;48.806;9.140;2023-03-14T01:58:25;9.00;99.90
7498;DHT22;3790;48.806;9.140;2023-03-14T02:03:29;8.90;99.90
7498;DHT22;3790;48.806;9.140;2023-03-14T02:08:31;8.90;99.90
7498;DHT22;3790;48.806;9.140;2023-03-14T02:13:31;8.90;99.90
7498;DHT22;3790;48.806;9.140;2023-03-14T02:18:32;8.80;99.90
7498;DHT22;3790;48.806;9.140;2023-03-14T02:29:11;8.80;99.90
7498;DHT22;3790;48.806;9.140;2023-03-14T02:34:12;8.70;99.90
7498;DHT22;3790;48.806;9.140;2023-03-14T02:39:21;8.70;99.90
7498;DHT22;3790;48.806;9.140;2023-03-14T02:44:24;8.70;99.90
7498;DHT22;3790;48.806;9.140;2023-03-14T02:49:27;8.70;99.90
7498;DHT22;3790;48.806;9.140;2023-03-14T02:54:29;8.70;99.90
7498;DHT22;3790;48.806;9.140;2023-03-14T02:59:30;8.70;99.90
7498;DHT22;3790;48.806;9.140;2023-03-14T03:04:30;8.70;99.90
7498;DHT22;3790;48.806;9.140;2023-03-14T03:09:31;8.70;99.90
7498;DHT22;3790;48.806;9.140;2023-03-14T03:14:31;8.70;99.90
7498;DHT22;3790;48.806;9.140;2023-03-14T03:19:33;8.80;99.90
7498;DHT22;3790;48.806;9.140;2023-03-14T03:24:34;8.80;99.90
7498;DHT22;3790;48.806;9.140;2023-03-14T03:29:34;8.80;99.90
7498;DHT22;3790;48.806;9.140;2023-03-14T03:34:35;8.80;99.90
7498;DHT22;3790;48.806;9.140;2023-03-14T03:39:35;8.80;99.90
7498;DHT22;3790;48.806;9.140;2023-03-14T03:44:36;8.80;99.90
7498;DHT22;3790;48.806;9.140;2023-03-14T03:49:37;8.70;99.90
7498;DHT22;3790;48.806;9.140;2023-03-14T03:54:37;8.70;99.90
7498;DHT22;3790;48.806;9.140;2023-03-14T03:59:38;8.70;99.90
7498;DHT22;3790;48.806;9.140;2023-03-14T04:04:40;8.70;99.90
7498;DHT22;3790;48.806;9.140;2023-03-14T04:09:40;8.60;99.90
7498;DHT22;3790;48.806;9.140;2023-03-14T04:14:41;8.60;99.90
7498;DHT22;3790;48.806;9.140;2023-03-14T04:19:41;8.50;99.90
7498;DHT22;3790;48.806;9.140;2023-03-14T04:24:42;8.50;99.90
7498;DHT22;3790;48.806;9.140;2023-03-14T04:29:43;8.50;99.90
7498;DHT22;3790;48.806;9.140;2023-03-14T04:34:43;8.60;99.90
7498;DHT22;3790;48.806;9.140;2023-03-14T04:39:44;8.60;99.90
7498;DHT22;3790;48.806;9.140;2023-03-14T04:44:44;8.60;99.90
7498;DHT22;3790;48.806;9.140;2023-03-14T04:49:47;8.50;99.90
7498;DHT22;3790;48.806;9.140;2023-03-14T04:54:47;8.50;99.90
7498;DHT22;3790;48.806;9.140;2023-03-14T04:59:48;8.50;99.90
7498;DHT22;3790;48.806;9.140;2023-03-14T05:04:48;8.50;99.90
7498;DHT22;3790;48.806;9.140;2023-03-14T05:09:49;8.40;99.90
7498;DHT22;3790;48.806;9.140;2023-03-14T05:14:49;8.30;99.90
7498;DHT22;3790;48.806;9.140;2023-03-14T05:19:50;8.30;99.90
7498;DHT22;3790;48.806;9.140;2023-03-14T05:24:50;8.30;99.90
7498;DHT22;3790;48.806;9.140;2023-03-14T05:29:51;8.30;99.90
7498;DHT22;3790;48.806;9.140;2023-03-14T05:34:51;8.20;99.90
7498;DHT22;3790;48.806;9.140;2023-03-14T05:39:52;8.10;99.90
7498;DHT22;3790;48.806;9.140;2023-03-14T05:44:52;8.00;99.90
7498;DHT22;3790;48.806;9.140;2023-03-14T05:49:53;8.10;99.90
7498;DHT22;3790;48.806;9.140;2023-03-14T05:54:53;8.10;99.90
7498;DHT22;3790;48.806;9.140;2023-03-14T05:59:54;8.10;99.90
7498;DHT22;3790;48.806;9.140;2023-03-14T06:04:54;8.20;99.90
7498;DHT22;3790;48.806;9.140;2023-03-14T06:09:55;8.40;99.90
7498;DHT22;3790;48.806;9.140;2023-03-14T06:14:55;8.40;99.90
7498;DHT22;3790;48.806;9.140;2023-03-14T06:19:56;8.30;99.90
7498;DHT22;3790;48.806;9.140;2023-03-14T06:24:56;8.40;99.90
7498;DHT22;3790;48.806;9.140;2023-03-14T06:29:57;8.40;99.90
7498;DHT22;3790;48.806;9.140;2023-03-14T06:34:57;8.40;99.90
7498;DHT22;3790;48.806;9.140;2023-03-14T06:40:01;8.40;99.90
7498;DHT22;3790;48.806;9.140;2023-03-14T06:45:02;8.60;99.90
7498;DHT22;3790;48.806;9.140;2023-03-14T06:50:03;8.70;99.90
7498;DHT22;3790;48.806;9.140;2023-03-14T06:55:04;8.70;99.90
7498;DHT22;3790;48.806;9.140;2023-03-14T07:00:06;8.70;99.90
7498;DHT22;3790;48.806;9.140;2023-03-14T07:05:07;9.10;99.90
7498;DHT22;3790;48.806;9.140;2023-03-14T07:10:08;9.30;99.90
7498;DHT22;3790;48.806;9.140;2023-03-14T07:15:12;9.30;99.90
7498;DHT22;3790;48.806;9.140;2023-03-14T07:20:12;9.20;99.90
7498;DHT22;3790;48.806;9.140;2023-03-14T07:25:13;9.40;99.90
7498;DHT22;3790;48.806;9.140;2023-03-14T07:30:14;9.60;99.90
7498;DHT22;3790;48.806;9.140;2023-03-14T07:35:14;10.00;99.90
7498;DHT22;3790;48.806;9.140;2023-03-14T07:40:15;10.40;99.90
7498;DHT22;3790;48.806;9.140;2023-03-14T07:45:16;10.60;99.90
7498;DHT22;3790;48.806;9.140;2023-03-14T07:50:16;10.80;99.90
7498;DHT22;3790;48.806;9.140;2023-03-14T07:55:17;10.80;99.90
7498;DHT22;3790;48.806;9.140;2023-03-14T08:00:18;10.80;99.90
7498;DHT22;3790;48.806;9.140;2023-03-14T08:05:19;10.90;99.90
7498;DHT22;3790;48.806;9.140;2023-03-14T08:10:19;10.90;99.90
7498;DHT22;3790;48.806;9.140;2023-03-14T08:15:23;11.10;99.90
7498;DHT22;3790;48.806;9.140;2023-03-14T08:20:27;11.40;99.90
7498;DHT22;3790;48.806;9.140;2023-03-14T08:25:28;11.70;99.90
7498;DHT22;3790;48.806;9.140;2023-03-14T08:30:28;12.20;99.90
7498;DHT22;3790;48.806;9.140;2023-03-14T08:35:29;12.30;99.90
7498;DHT22;3790;48.806;9.140;2023-03-14T08:40:30;12.10;99.90
7498;DHT22;3790;48.806;9.140;2023-03-14T08:45:30;12.10;99.90
7498;DHT22;3790;48.806;9.140;2023-03-14T08:50:31;12.00;99.90
7498;DHT22;3790;48.806;9.140;2023-03-14T08:55:31;12.20;99.90
7498;DHT22;3790;48.806;9.140;2023-03-14T09:00:32;12.30;99.90
7498;DHT22;3790;48.806;9.140;2023-03-14T09:05:33;13.20;99.90
7498;DHT22;3790;48.806;9.140;2023-03-14T09:10:34;13.70;99.90
7498;DHT22;3790;48.806;9.140;2023-03-14T09:15:35;13.40;99.90
7498;DHT22;3790;48.806;9.140;2023-03-14T09:20:35;13.90;99.90
7498;DHT22;3790;48.806;9.140;2023-03-14T09:25:36;14.00;99.90
7498;DHT22;3790;48.806;9.140;2023-03-14T09:30:36;14.20;99.90
7498;DHT22;3790;48.806;9.140;2023-03-14T09:35:37;14.10;99.90
7498;DHT22;3790;48.806;9.140;2023-03-14T09:40:38;13.70;99.90
7498;DHT22;3790;48.806;9.140;2023-03-14T09:45:40;13.70;99.90
7498;DHT22;3790;48.806;9.140;2023-03-14T09:50:55;14.00;99.90
7498;DHT22;3790;48.806;9.140;2023-03-14T09:55:58;14.40;99.90
7498;DHT22;3790;48.806;9.140;2023-03-14T10:00:59;14.30;99.90
7498;DHT22;3790;48.806;9.140;2023-03-14T10:06:00;14.00;99.90
7498;DHT22;3790;48.806;9.140;2023-03-14T10:11:01;13.30;99.90
7498;DHT22;3790;48.806;9.140;2023-03-14T10:16:04;12.80;99.90
7498;DHT22;3790;48.806;9.140;2023-03-14T10:21:26;12.40;99.90
7498;DHT22;3790;48.806;9.140;2023-03-14T10:26:27;12.50;99.90
7498;DHT22;3790;48.806;9.140;2023-03-14T10:31:58;13.20;99.90
7498;DHT22;3790;48.806;9.140;2023-03-14T10:37:23;14.30;99.90
7498;DHT22;3790;48.806;9.140;2023-03-14T10:42:30;14.30;99.90
7498;DHT22;3790;48.806;9.140;2023-03-14T10:47:32;13.90;99.90
7498;DHT22;3790;48.806;9.140;2023-03-14T10:52:33;14.20;99.90
7498;DHT22;3790;48.806;9.140;2023-03-14T10:57:42;14.60;99.90
7498;DHT22;3790;48.806;9.140;2023-03-14T11:03:04;14.00;99.90
7498;DHT22;3790;48.806;9.140;2023-03-14T11:08:42;13.60;99.90
7498;DHT22;3790;48.806;9.140;2023-03-14T11:14:05;13.40;99.90
7498;DHT22;3790;48.806;9.140;2023-03-14T11:24:45;12.50;99.90
7498;DHT22;3790;48.806;9.140;2023-03-14T11:35:03;10.10;99.90
7498;DHT22;3790;48.806;9.140;2023-03-14T11:40:11;9.90;99.90
7498;DHT22;3790;48.806;9.140;2023-03-14T11:45:20;9.80;99.90
7498;DHT22;3790;48.806;9.140;2023-03-14T11:50:25;9.70;99.90
7498;DHT22;3790;48.806;9.140;2023-03-14T11:55:37;9.90;99.90
7498;DHT22;3790;48.806;9.140;2023-03-14T12:00:40;10.00;99.90
7498;DHT22;3790;48.806;9.140;2023-03-14T12:11:40;10.70;99.90
7498;DHT22;3790;48.806;9.140;2023-03-14T12:16:46;11.00;99.90
7498;DHT22;3790;48.806;9.140;2023-03-14T12:21:55;10.30;99.90
7498;DHT22;3790;48.806;9.140;2023-03-14T12:26:59;9.90;99.90
7498;DHT22;3790;48.806;9.140;2023-03-14T12:37:15;10.60;99.90
7498;DHT22;3790;48.806;9.140;2023-03-14T12:42:53;12.90;99.90
7498;DHT22;3790;48.806;9.140;2023-03-14T12:58:15;13.40;99.90
7498;DHT22;3790;48.806;9.140;2023-03-14T13:03:20;13.10;99.90
7498;DHT22;3790;48.806;9.140;2023-03-14T13:08:44;13.80;99.90
7498;DHT22;3790;48.806;9.140;2023-03-14T13:13:48;11.20;99.90
7498;DHT22;3790;48.806;9.140;2023-03-14T13:19:02;10.40;99.90
7498;DHT22;3790;48.806;9.140;2023-03-14T13:24:07;10.00;99.90
7498;DHT22;3790;48.806;9.140;2023-03-14T13:29:25;10.90;99.90
7498;DHT22;3790;48.806;9.140;2023-03-14T13:34:30;11.10;99.90
7498;DHT22;3790;48.806;9.140;2023-03-14T13:39:31;10.40;99.90
7498;DHT22;3790;48.806;9.140;2023-03-14T13:44:38;9.90;99.90
7498;DHT22;3790;48.806;9.140;2023-03-14T13:49:39;9.90;99.90
7498;DHT22;3790;48.806;9.140;2023-03-14T13:54:40;10.20;99.90
7498;DHT22;3790;48.806;9.140;2023-03-14T13:59:40;10.50;99.90
7498;DHT22;3790;48.806;9.140;2023-03-14T14:04:41;10.00;99.90
7498;DHT22;3790;48.806;9.140;2023-03-14T14:09:43;9.70;99.90
7498;DHT22;3790;48.806;9.140;2023-03-14T14:14:53;9.60;99.90
7498;DHT22;3790;48.806;9.140;2023-03-14T14:19:55;9.70;99.90
7498;DHT22;3790;48.806;9.140;2023-03-14T14:24:57;9.40;99.90
7498;DHT22;3790;48.806;9.140;2023-03-14T14:30:06;9.30;99.90
7498;DHT22;3790;48.806;9.140;2023-03-14T14:35:32;9.30;99.90
7498;DHT22;3790;48.806;9.140;2023-03-14T14:40:33;9.00;99.90
7498;DHT22;3790;48.806;9.140;2023-03-14T14:45:34;8.90;99.90
7498;DHT22;3790;48.806;9.140;2023-03-14T14:55:50;9.10;99.90
7498;DHT22;3790;48.806;9.140;2023-03-14T15:00:59;8.90;99.90
7498;DHT22;3790;48.806;9.140;2023-03-14T15:06:03;9.10;99.90
7498;DHT22;3790;48.806;9.140;2023-03-14T15:11:04;9.30;99.90
7498;DHT22;3790;48.806;9.140;2023-03-14T15:16:10;9.80;99.90
7498;DHT22;3790;48.806;9.140;2023-03-14T15:21:11;10.10;99.90
7498;DHT22;3790;48.806;9.140;2023-03-14T15:26:14;9.80;99.90
7498;DHT22;3790;48.806;9.140;2023-03-14T15:31:16;9.70;99.90
7498;DHT22;3790;48.806;9.140;2023-03-14T15:36:29;9.20;99.90
7498;DHT22;3790;48.806;9.140;2023-03-14T15:41:33;9.20;99.90
7498;DHT22;3790;48.806;9.140;2023-03-14T15:46:34;9.80;99.90
7498;DHT22;3790;48.806;9.140;2023-03-14T15:51:35;9.70;99.90
7498;DHT22;3790;48.806;9.140;2023-03-14T15:56:36;9.70;99.90
7498;DHT22;3790;48.806;9.140;2023-03-14T16:01:37;10.00;99.90
7498;DHT22;3790;48.806;9.140;2023-03-14T16:06:40;10.00;99.90
7498;DHT22;3790;48.806;9.140;2023-03-14T16:11:41;9.30;99.90
7498;DHT22;3790;48.806;9.140;2023-03-14T16:16:41;8.70;99.90
7498;DHT22;3790;48.806;9.140;2023-03-14T16:21:42;8.60;99.90
7498;DHT22;3790;48.806;9.140;2023-03-14T16:26:43;8.30;99.90
7498;DHT22;3790;48.806;9.140;2023-03-14T16:31:47;8.20;99.90
7498;DHT22;3790;48.806;9.140;2023-03-14T16:36:47;8.60;99.90
7498;DHT22;3790;48.806;9.140;2023-03-14T16:41:51;9.40;99.90
7498;DHT22;3790;48.806;9.140;2023-03-14T16:46:51;8.60;99.90
7498;DHT22;3790;48.806;9.140;2023-03-14T16:51:52;8.50;99.90
7498;DHT22;3790;48.806;9.140;2023-03-14T16:56:52;8.30;99.90
7498;DHT22;3790;48.806;9.140;2023-03-14T17:01:54;8.20;99.90
7498;DHT22;3790;48.806;9.140;2023-03-14T17:06:55;8.30;99.90
7498;DHT22;3790;48.806;9.140;2023-03-14T17:11:56;8.30;99.90
7498;DHT22;3790;48.806;9.140;2023-03-14T17:16:56;8.30;99.90
7498;DHT22;3790;48.806;9.140;2023-03-14T17:21:57;8.20;99.90
7498;DHT22;3790;48.806;9.140;2023-03-14T17:26:57;7.60;99.90
7498;DHT22;3790;48.806;9.140;2023-03-14T17:31:58;7.10;99.90
7498;DHT22;3790;48.806;9.140;2023-03-14T17:36:58;6.80;99.90
7498;DHT22;3790;48.806;9.140;2023-03-14T17:41:59;6.50;99.90
7498;DHT22;3790;48.806;9.140;2023-03-14T17:47:00;6.30;99.90
7498;DHT22;3790;48.806;9.140;2023-03-14T17:52:01;6.30;99.90
7498;DHT22;3790;48.806;9.140;2023-03-14T17:57:01;6.30;99.90
7498;DHT22;3790;48.806;9.140;2023-03-14T18:02:02;6.20;99.90
7498;DHT22;3790;48.806;9.140;2023-03-14T18:07:02;6.20;99.90
7498;DHT22;3790;48.806;9.140;2023-03-14T18:12:03;6.30;99.90
7498;DHT22;3790;48.806;9.140;2023-03-14T18:17:04;6.30;99.90
7498;DHT22;3790;48.806;9.140;2023-03-14T18:22:05;5.50;99.90
7498;DHT22;3790;48.806;9.140;2023-03-14T18:27:06;5.00;99.90
7498;DHT22;3790;48.806;9.140;2023-03-14T18:32:08;4.80;99.90
7498;DHT22;3790;48.806;9.140;2023-03-14T18:37:09;4.70;99.90
7498;DHT22;3790;48.806;9.140;2023-03-14T18:42:09;4.60;99.90
7498;DHT22;3790;48.806;9.140;2023-03-14T18:47:10;4.60;99.90
7498;DHT22;3790;48.806;9.140;2023-03-14T18:52:11;4.60;99.90
7498;DHT22;3790;48.806;9.140;2023-03-14T18:57:11;4.70;99.90
7498;DHT22;3790;48.806;9.140;2023-03-14T19:02:12;5.00;99.90
7498;DHT22;3790;48.806;9.140;2023-03-14T19:07:12;5.10;99.90
7498;DHT22;3790;48.806;9.140;2023-03-14T19:12:13;5.20;99.90
7498;DHT22;3790;48.806;9.140;2023-03-14T19:17:13;5.20;99.90
7498;DHT22;3790;48.806;9.140;2023-03-14T19:22:14;5.10;99.90
7498;DHT22;3790;48.806;9.140;2023-03-14T19:27:14;5.20;99.90
7498;DHT22;3790;48.806;9.140;2023-03-14T19:32:17;5.20;99.90
7498;DHT22;3790;48.806;9.140;2023-03-14T19:37:18;5.00;99.90
7498;DHT22;3790;48.806;9.140;2023-03-14T19:42:18;4.80;99.90
7498;DHT22;3790;48.806;9.140;2023-03-14T19:47:19;4.70;99.90
7498;DHT22;3790;48.806;9.140;2023-03-14T19:52:19;4.80;99.90
7498;DHT22;3790;48.806;9.140;2023-03-14T19:57:20;4.80;99.90
7498;DHT22;3790;48.806;9.140;2023-03-14T20:02:20;4.90;99.90
7498;DHT22;3790;48.806;9.140;2023-03-14T20:07:21;5.10;99.90
7498;DHT22;3790;48.806;9.140;2023-03-14T20:12:22;5.30;99.90
7498;DHT22;3790;48.806;9.140;2023-03-14T20:17:23;5.40;99.90
7498;DHT22;3790;48.806;9.140;2023-03-14T20:28:20;5.40;99.90
7498;DHT22;3790;48.806;9.140;2023-03-14T20:33:21;5.50;99.90
7498;DHT22;3790;48.806;9.140;2023-03-14T20:38:22;5.50;99.90
7498;DHT22;3790;48.806;9.140;2023-03-14T20:43:23;5.60;99.90
7498;DHT22;3790;48.806;9.140;2023-03-14T20:48:28;5.60;99.90
7498;DHT22;3790;48.806;9.140;2023-03-14T20:53:28;5.60;99.90
7498;DHT22;3790;48.806;9.140;2023-03-14T20:58:29;5.70;99.90
7498;DHT22;3790;48.806;9.140;2023-03-14T21:03:29;5.70;99.90
7498;DHT22;3790;48.806;9.140;2023-03-14T21:08:30;5.80;99.90
7498;DHT22;3790;48.806;9.140;2023-03-14T21:13:31;5.80;99.90
7498;DHT22;3790;48.806;9.140;2023-03-14T21:18:33;5.90;99.90
7498;DHT22;3790;48.806;9.140;2023-03-14T21:23:33;5.80;99.90
7498;DHT22;3790;48.806;9.140;2023-03-14T21:28:35;5.70;99.90
7498;DHT22;3790;48.806;9.140;2023-03-14T21:33:36;5.70;99.90
7498;DHT22;3790;48.806;9.140;2023-03-14T21:38:37;5.70;99.90
7498;DHT22;3790;48.806;9.140;2023-03-14T21:43:37;5.70;99.90
7498;DHT22;3790;48.806;9.140;2023-03-14T21:48:40;5.30;99.90
7498;DHT22;3790;48.806;9.140;2023-03-14T21:53:41;4.90;99.90
7498;DHT22;3790;48.806;9.140;2023-03-14T21:58:41;4.50;99.90
7498;DHT22;3790;48.806;9.140;2023-03-14T22:03:42;4.30;99.90
7498;DHT22;3790;48.806;9.140;2023-03-14T22:08:45;4.10;99.90
7498;DHT22;3790;48.806;9.140;2023-03-14T22:13:45;4.00;99.90
7498;DHT22;3790;48.806;9.140;2023-03-14T22:18:46;3.90;99.90
7498;DHT22;3790;48.806;9.140;2023-03-14T22:23:46;4.00;99.90
7498;DHT22;3790;48.806;9.140;2023-03-14T22:28:47;4.00;99.90
7498;DHT22;3790;48.806;9.140;2023-03-14T22:33:47;2.90;99.90
7498;DHT22;3790;48.806;9.140;2023-03-14T22:38:48;2.40;99.90
7498;DHT22;3790;48.806;9.140;2023-03-14T22:43:48;2.20;99.90
7498;DHT22;3790;48.806;9.140;2023-03-14T22:48:49;1.90;99.90
7498;DHT22;3790;48.806;9.140;2023-03-14T22:53:50;1.80;99.90
7498;DHT22;3790;48.806;9.140;2023-03-14T22:58:50;1.70;99.90
7498;DHT22;3790;48.806;9.140;2023-03-14T23:03:51;1.60;99.90
7498;DHT22;3790;48.806;9.140;2023-03-14T23:08:52;1.50;99.90
7498;DHT22;3790;48.806;9.140;2023-03-14T23:13:52;1.40;99.90
7498;DHT22;3790;48.806;9.140;2023-03-14T23:18:53;1.30;99.90
7498;DHT22;3790;48.806;9.140;2023-03-14T23:23:53;1.30;99.90
7498;DHT22;3790;48.806;9.140;2023-03-14T23:28:54;1.30;99.90
7498;DHT22;3790;48.806;9.140;2023-03-14T23:33:55;1.30;99.90
7498;DHT22;3790;48.806;9.140;2023-03-14T23:38:55;1.40;99.90
7498;DHT22;3790;48.806;9.140;2023-03-14T23:43:56;1.40;99.90
7498;DHT22;3790;48.806;9.140;2023-03-14T23:48:57;1.40;99.90
7498;DHT22;3790;48.806;9.140;2023-03-14T23:53:57;1.40;99.90
7498;DHT22;3790;48.806;9.140;2023-03-14T23:58:58;1.30;99.90
